createdAt,value
2019-01-16T00:00:37.503Z,18.64
2019-01-16T00:01:37.193Z,18.62
2019-01-16T00:02:38.955Z,18.63
2019-01-16T00:03:37.553Z,18.63
2019-01-16T00:04:37.027Z,18.61
2019-01-16T00:05:37.168Z,18.62
2019-01-16T00:06:37.654Z,18.63
2019-01-16T00:07:37.100Z,18.61
2019-01-16T00:08:37.194Z,18.6
2019-01-16T00:09:37.752Z,18.6
2019-01-16T00:10:37.237Z,18.6
2019-01-16T00:11:37.361Z,18.59
2019-01-16T00:12:37.188Z,18.58
2019-01-16T00:13:37.157Z,18.58
2019-01-16T00:14:37.590Z,18.58
2019-01-16T00:15:37.226Z,18.58
2019-01-16T00:16:37.718Z,18.57
2019-01-16T00:17:37.445Z,18.57
2019-01-16T00:18:37.546Z,18.57
2019-01-16T00:19:37.249Z,18.56
2019-01-16T00:20:37.147Z,18.56
2019-01-16T00:21:37.782Z,18.56
2019-01-16T00:22:37.280Z,18.56
2019-01-16T00:23:37.047Z,18.55
2019-01-16T00:24:37.258Z,18.55
2019-01-16T00:25:38.903Z,18.54
2019-01-16T00:26:37.065Z,18.53
2019-01-16T00:27:37.585Z,18.54
2019-01-16T00:28:37.017Z,18.53
2019-01-16T00:29:37.191Z,18.52
2019-01-16T00:30:37.061Z,18.51
2019-01-16T00:31:37.320Z,18.51
2019-01-16T00:32:37.441Z,18.49
2019-01-16T00:33:37.035Z,18.52
2019-01-16T00:34:37.437Z,18.52
2019-01-16T00:35:36.953Z,18.51
2019-01-16T00:36:37.323Z,18.5
2019-01-16T00:37:37.051Z,18.51
2019-01-16T00:38:37.060Z,18.48
2019-01-16T00:39:36.931Z,18.49
2019-01-16T00:40:38.007Z,18.48
2019-01-16T00:41:36.900Z,18.47
2019-01-16T00:42:37.210Z,18.47
2019-01-16T00:43:37.092Z,18.47
2019-01-16T00:44:37.179Z,18.45
2019-01-16T00:45:38.910Z,18.44
2019-01-16T00:46:37.604Z,18.45
2019-01-16T00:47:37.346Z,18.45
2019-01-16T00:48:37.095Z,18.45
2019-01-16T00:49:37.570Z,18.44
2019-01-16T00:50:37.175Z,18.44
2019-01-16T00:51:37.109Z,18.43
2019-01-16T00:52:37.205Z,18.44
2019-01-16T00:53:37.184Z,18.43
2019-01-16T00:54:37.412Z,18.43
2019-01-16T00:55:37.606Z,18.42
2019-01-16T00:56:37.580Z,18.42
2019-01-16T00:57:37.126Z,18.42
2019-01-16T00:58:39.020Z,18.4
2019-01-16T00:59:37.024Z,18.4
2019-01-16T01:00:37.273Z,18.4
2019-01-16T01:01:37.105Z,18.38
2019-01-16T01:02:36.982Z,18.38
2019-01-16T01:03:37.193Z,18.38
2019-01-16T01:04:37.189Z,18.4
2019-01-16T01:05:37.038Z,18.4
2019-01-16T01:06:37.984Z,18.38
2019-01-16T01:07:37.263Z,18.39
2019-01-16T01:08:37.367Z,18.37
2019-01-16T01:09:37.446Z,18.38
2019-01-16T01:10:37.156Z,18.38
2019-01-16T01:11:37.002Z,18.38
2019-01-16T01:12:37.064Z,18.36
2019-01-16T01:13:37.014Z,18.37
2019-01-16T01:14:37.238Z,18.38
2019-01-16T01:15:37.196Z,18.36
2019-01-16T01:16:37.059Z,18.36
2019-01-16T01:17:37.249Z,18.36
2019-01-16T01:18:40.852Z,18.34
2019-01-16T01:19:37.256Z,18.35
2019-01-16T01:20:37.171Z,18.34
2019-01-16T01:21:37.036Z,18.35
2019-01-16T01:22:37.074Z,18.33
2019-01-16T01:23:37.108Z,18.34
2019-01-16T01:24:36.935Z,18.33
2019-01-16T01:25:37.293Z,18.33
2019-01-16T01:26:37.118Z,18.32
2019-01-16T01:27:36.949Z,18.32
2019-01-16T01:28:37.060Z,18.31
2019-01-16T01:29:37.296Z,18.32
2019-01-16T01:30:37.007Z,18.3
2019-01-16T01:31:37.354Z,18.29
2019-01-16T01:32:37.168Z,18.3
2019-01-16T01:33:37.350Z,18.28
2019-01-16T01:34:37.254Z,18.29
2019-01-16T01:35:37.283Z,18.29
2019-01-16T01:36:37.276Z,18.29
2019-01-16T01:37:37.267Z,18.29
2019-01-16T01:38:37.778Z,18.27
2019-01-16T01:39:38.838Z,18.29
2019-01-16T01:40:37.372Z,18.28
2019-01-16T01:41:37.204Z,18.27
2019-01-16T01:42:37.028Z,18.26
2019-01-16T01:43:38.881Z,18.27
2019-01-16T01:44:37.794Z,18.27
2019-01-16T01:45:37.031Z,18.27
2019-01-16T01:46:37.310Z,18.26
2019-01-16T01:47:37.701Z,18.26
2019-01-16T01:48:40.035Z,18.27
2019-01-16T01:49:37.638Z,18.26
2019-01-16T01:50:37.336Z,18.24
2019-01-16T01:51:37.145Z,18.25
2019-01-16T01:52:37.027Z,18.24
2019-01-16T01:53:37.195Z,18.25
2019-01-16T01:54:37.219Z,18.23
2019-01-16T01:55:38.056Z,18.23
2019-01-16T01:56:38.032Z,18.24
2019-01-16T01:57:37.027Z,18.24
2019-01-16T01:58:37.098Z,18.22
2019-01-16T01:59:37.744Z,18.23
2019-01-16T02:00:38.889Z,18.22
2019-01-16T02:01:37.363Z,18.23
2019-01-16T02:02:39.928Z,18.22
2019-01-16T02:03:37.292Z,18.22
2019-01-16T02:04:37.164Z,18.22
2019-01-16T02:05:36.929Z,18.22
2019-01-16T02:06:37.095Z,18.2
2019-01-16T02:07:37.049Z,18.2
2019-01-16T02:08:36.945Z,18.21
2019-01-16T02:09:37.020Z,18.2
2019-01-16T02:10:37.489Z,18.2
2019-01-16T02:11:36.963Z,18.19
2019-01-16T02:12:37.193Z,18.18
2019-01-16T02:13:37.660Z,18.18
2019-01-16T02:14:36.910Z,18.18
2019-01-16T02:15:37.125Z,18.17
2019-01-16T02:16:36.962Z,18.18
2019-01-16T02:17:37.088Z,18.17
2019-01-16T02:18:37.364Z,18.17
2019-01-16T02:19:37.246Z,18.16
2019-01-16T02:20:37.568Z,18.15
2019-01-16T02:21:37.982Z,18.15
2019-01-16T02:22:36.939Z,18.14
2019-01-16T02:23:37.114Z,18.15
2019-01-16T02:24:37.083Z,18.16
2019-01-16T02:25:36.969Z,18.14
2019-01-16T02:26:37.036Z,18.14
2019-01-16T02:27:37.309Z,18.14
2019-01-16T02:28:37.252Z,18.12
2019-01-16T02:29:37.048Z,18.15
2019-01-16T02:30:37.225Z,18.13
2019-01-16T02:31:36.973Z,18.13
2019-01-16T02:32:37.085Z,18.12
2019-01-16T02:33:37.080Z,18.12
2019-01-16T02:34:37.247Z,18.13
2019-01-16T02:35:37.258Z,18.13
2019-01-16T02:36:37.210Z,18.12
2019-01-16T02:37:37.026Z,18.11
2019-01-16T02:38:37.262Z,18.11
2019-01-16T02:39:37.411Z,18.1
2019-01-16T02:40:37.280Z,18.1
2019-01-16T02:41:37.285Z,18.11
2019-01-16T02:42:37.100Z,18.11
2019-01-16T02:43:37.023Z,18.11
2019-01-16T02:44:37.483Z,18.11
2019-01-16T02:45:37.009Z,18.11
2019-01-16T02:46:37.454Z,18.1
2019-01-16T02:47:37.079Z,18.1
2019-01-16T02:48:37.018Z,18.09
2019-01-16T02:49:37.000Z,18.07
2019-01-16T02:50:37.426Z,18.08
2019-01-16T02:51:36.888Z,18.08
2019-01-16T02:52:37.190Z,18.07
2019-01-16T02:53:37.057Z,18.07
2019-01-16T02:54:36.910Z,18.07
2019-01-16T02:55:37.212Z,18.07
2019-01-16T02:56:37.001Z,18.07
2019-01-16T02:57:37.132Z,18.07
2019-01-16T02:58:37.028Z,18.06
2019-01-16T02:59:37.166Z,18.05
2019-01-16T03:00:37.038Z,18.06
2019-01-16T03:01:37.092Z,18.06
2019-01-16T03:02:37.180Z,18.05
2019-01-16T03:03:37.120Z,18.05
2019-01-16T03:04:37.252Z,18.04
2019-01-16T03:05:37.180Z,18.03
2019-01-16T03:06:37.016Z,18.01
2019-01-16T03:07:37.090Z,18.02
2019-01-16T03:08:37.236Z,18.03
2019-01-16T03:09:37.050Z,18.03
2019-01-16T03:10:37.207Z,18.02
2019-01-16T03:11:36.930Z,18.02
2019-01-16T03:12:37.286Z,18.02
2019-01-16T03:13:37.191Z,18.02
2019-01-16T03:14:36.960Z,18.02
2019-01-16T03:15:37.131Z,18.01
2019-01-16T03:16:37.175Z,18
2019-01-16T03:17:36.977Z,18.01
2019-01-16T03:18:37.219Z,18.01
2019-01-16T03:19:37.179Z,18.01
2019-01-16T03:20:37.169Z,18
2019-01-16T03:21:37.387Z,18.01
2019-01-16T03:22:37.967Z,17.99
2019-01-16T03:23:36.973Z,18
2019-01-16T03:24:37.635Z,17.99
2019-01-16T03:25:37.126Z,17.99
2019-01-16T03:26:37.279Z,17.98
2019-01-16T03:27:37.048Z,17.98
2019-01-16T03:28:37.268Z,17.98
2019-01-16T03:29:37.250Z,17.98
2019-01-16T03:30:37.219Z,17.98
2019-01-16T03:31:37.412Z,17.97
2019-01-16T03:32:37.177Z,17.96
2019-01-16T03:33:37.164Z,17.96
2019-01-16T03:34:37.607Z,17.95
2019-01-16T03:35:37.041Z,17.97
2019-01-16T03:36:37.232Z,17.96
2019-01-16T03:37:37.250Z,17.96
2019-01-16T03:38:37.304Z,17.96
2019-01-16T03:39:37.186Z,17.96
2019-01-16T03:40:37.008Z,17.95
2019-01-16T03:41:37.331Z,17.95
2019-01-16T03:42:38.030Z,17.95
2019-01-16T03:43:37.691Z,17.94
2019-01-16T03:44:38.169Z,17.94
2019-01-16T03:45:36.980Z,17.93
2019-01-16T03:46:37.278Z,17.93
2019-01-16T03:47:37.559Z,17.94
2019-01-16T03:48:37.181Z,17.94
2019-01-16T03:49:37.813Z,17.93
2019-01-16T03:50:37.582Z,17.93
2019-01-16T03:51:37.132Z,17.93
2019-01-16T03:52:38.127Z,17.93
2019-01-16T03:53:37.297Z,17.91
2019-01-16T03:54:37.019Z,17.92
2019-01-16T03:55:37.093Z,17.92
2019-01-16T03:56:37.011Z,17.93
2019-01-16T03:57:37.703Z,17.92
2019-01-16T03:58:36.962Z,17.91
2019-01-16T03:59:37.270Z,17.91
2019-01-16T04:00:36.967Z,17.9
2019-01-16T04:01:37.002Z,17.91
2019-01-16T04:02:37.061Z,17.9
2019-01-16T04:03:37.411Z,17.91
2019-01-16T04:04:37.113Z,17.91
2019-01-16T04:05:36.961Z,17.9
2019-01-16T04:06:37.551Z,17.9
2019-01-16T04:07:37.228Z,17.88
2019-01-16T04:08:37.208Z,17.89
2019-01-16T04:09:38.154Z,17.89
2019-01-16T04:10:37.331Z,17.87
2019-01-16T04:11:37.285Z,17.87
2019-01-16T04:12:37.364Z,17.86
2019-01-16T04:13:38.241Z,17.87
2019-01-16T04:14:37.052Z,17.86
2019-01-16T04:15:37.299Z,17.87
2019-01-16T04:16:36.957Z,17.86
2019-01-16T04:17:37.025Z,17.86
2019-01-16T04:18:37.396Z,17.86
2019-01-16T04:19:36.829Z,17.85
2019-01-16T04:20:38.208Z,17.87
2019-01-16T04:21:37.980Z,17.85
2019-01-16T04:22:37.107Z,17.84
2019-01-16T04:23:37.079Z,17.85
2019-01-16T04:24:37.111Z,17.84
2019-01-16T04:25:37.249Z,17.84
2019-01-16T04:26:37.090Z,17.83
2019-01-16T04:27:38.967Z,17.84
2019-01-16T04:28:37.122Z,17.84
2019-01-16T04:29:37.103Z,17.83
2019-01-16T04:30:37.247Z,17.83
2019-01-16T04:31:37.275Z,17.84
2019-01-16T04:32:37.375Z,17.84
2019-01-16T04:33:37.342Z,17.82
2019-01-16T04:34:36.895Z,17.83
2019-01-16T04:35:37.204Z,17.82
2019-01-16T04:36:37.144Z,17.82
2019-01-16T04:37:36.890Z,17.79
2019-01-16T04:38:36.984Z,17.81
2019-01-16T04:39:37.034Z,17.81
2019-01-16T04:40:36.996Z,17.82
2019-01-16T04:41:37.090Z,17.82
2019-01-16T04:42:37.159Z,17.82
2019-01-16T04:43:37.090Z,17.82
2019-01-16T04:44:37.063Z,17.82
2019-01-16T04:45:36.978Z,17.83
2019-01-16T04:46:37.186Z,17.83
2019-01-16T04:47:37.135Z,17.84
2019-01-16T04:48:37.412Z,17.85
2019-01-16T04:49:37.058Z,17.85
2019-01-16T04:50:37.085Z,17.87
2019-01-16T04:51:37.034Z,17.86
2019-01-16T04:52:36.989Z,17.87
2019-01-16T04:53:36.878Z,17.88
2019-01-16T04:54:37.055Z,17.89
2019-01-16T04:55:37.958Z,17.9
2019-01-16T04:56:37.208Z,17.91
2019-01-16T04:57:37.044Z,17.93
2019-01-16T04:58:37.009Z,17.94
2019-01-16T04:59:38.846Z,17.94
2019-01-16T05:00:37.073Z,17.94
2019-01-16T05:01:38.993Z,17.96
2019-01-16T05:02:37.175Z,17.97
2019-01-16T05:03:37.348Z,17.99
2019-01-16T05:04:37.397Z,17.99
2019-01-16T05:05:37.164Z,18.01
2019-01-16T05:06:36.948Z,18.02
2019-01-16T05:07:37.162Z,18.04
2019-01-16T05:08:37.227Z,18.05
2019-01-16T05:09:37.670Z,18.05
2019-01-16T05:10:37.031Z,18.07
2019-01-16T05:11:37.050Z,18.1
2019-01-16T05:12:37.703Z,18.12
2019-01-16T05:13:37.716Z,18.12
2019-01-16T05:14:38.903Z,18.15
2019-01-16T05:15:37.012Z,18.17
2019-01-16T05:16:37.424Z,18.18
2019-01-16T05:17:37.268Z,18.22
2019-01-16T05:18:37.001Z,18.23
2019-01-16T05:19:38.609Z,18.24
2019-01-16T05:20:37.392Z,18.27
2019-01-16T05:21:37.936Z,18.29
2019-01-16T05:22:36.879Z,18.31
2019-01-16T05:23:37.029Z,18.31
2019-01-16T05:24:37.550Z,18.34
2019-01-16T05:25:39.085Z,18.34
2019-01-16T05:26:37.089Z,18.36
2019-01-16T05:27:36.965Z,18.38
2019-01-16T05:28:37.295Z,18.4
2019-01-16T05:29:37.402Z,18.42
2019-01-16T05:30:37.426Z,18.43
2019-01-16T05:31:37.020Z,18.46
2019-01-16T05:32:37.129Z,18.48
2019-01-16T05:33:36.961Z,18.49
2019-01-16T05:34:37.046Z,18.5
2019-01-16T05:35:37.687Z,18.51
2019-01-16T05:36:37.186Z,18.52
2019-01-16T05:37:37.128Z,18.54
2019-01-16T05:38:37.271Z,18.55
2019-01-16T05:39:37.004Z,18.58
2019-01-16T05:40:37.112Z,18.58
2019-01-16T05:41:37.317Z,18.59
2019-01-16T05:42:37.311Z,18.62
2019-01-16T05:43:37.328Z,18.62
2019-01-16T05:44:36.847Z,18.63
2019-01-16T05:45:37.591Z,18.65
2019-01-16T05:46:37.598Z,18.66
2019-01-16T05:47:37.756Z,18.67
2019-01-16T05:48:37.333Z,18.69
2019-01-16T05:49:37.310Z,18.7
2019-01-16T05:50:36.986Z,18.71
2019-01-16T05:51:36.935Z,18.71
2019-01-16T05:52:36.995Z,18.73
2019-01-16T05:53:37.178Z,18.74
2019-01-16T05:54:37.053Z,18.75
2019-01-16T05:55:37.121Z,18.76
2019-01-16T05:56:38.743Z,18.78
2019-01-16T05:57:36.975Z,18.81
2019-01-16T05:58:36.791Z,18.81
2019-01-16T05:59:36.948Z,18.82
2019-01-16T06:00:37.245Z,18.82
2019-01-16T06:01:36.981Z,18.83
2019-01-16T06:02:37.219Z,18.85
2019-01-16T06:03:36.956Z,18.86
2019-01-16T06:04:37.137Z,18.87
2019-01-16T06:05:36.955Z,18.86
2019-01-16T06:06:37.556Z,18.89
2019-01-16T06:07:38.743Z,18.9
2019-01-16T06:08:37.124Z,18.9
2019-01-16T06:09:36.988Z,18.92
2019-01-16T06:10:38.759Z,18.91
2019-01-16T06:11:37.222Z,18.92
2019-01-16T06:12:37.094Z,18.93
2019-01-16T06:13:36.929Z,18.94
2019-01-16T06:14:36.991Z,18.94
2019-01-16T06:15:37.227Z,18.95
2019-01-16T06:16:37.089Z,18.95
2019-01-16T06:17:37.180Z,18.98
2019-01-16T06:18:37.285Z,18.98
2019-01-16T06:19:36.918Z,18.98
2019-01-16T06:20:37.026Z,19
2019-01-16T06:21:36.930Z,19
2019-01-16T06:22:36.920Z,19.03
2019-01-16T06:23:37.057Z,19.03
2019-01-16T06:24:37.461Z,19.03
2019-01-16T06:25:36.845Z,19.05
2019-01-16T06:26:36.917Z,19.07
2019-01-16T06:27:36.807Z,19.08
2019-01-16T06:28:36.982Z,19.08
2019-01-16T06:29:37.070Z,19.09
2019-01-16T06:30:37.030Z,19.13
2019-01-16T06:31:36.814Z,19.09
2019-01-16T06:32:37.514Z,19.11
2019-01-16T06:33:37.216Z,19.12
2019-01-16T06:34:36.940Z,19.15
2019-01-16T06:35:37.089Z,19.15
2019-01-16T06:36:36.883Z,19.17
2019-01-16T06:37:37.336Z,19.18
2019-01-16T06:38:37.230Z,19.19
2019-01-16T06:39:37.058Z,19.21
2019-01-16T06:40:36.993Z,19.23
2019-01-16T06:41:37.129Z,19.25
2019-01-16T06:42:38.770Z,19.25
2019-01-16T06:43:38.876Z,19.27
2019-01-16T06:44:37.325Z,19.28
2019-01-16T06:45:36.806Z,19.31
2019-01-16T06:46:37.033Z,19.31
2019-01-16T06:47:37.324Z,19.31
2019-01-16T06:48:37.178Z,19.36
2019-01-16T06:49:37.240Z,19.35
2019-01-16T06:50:36.811Z,19.38
2019-01-16T06:51:37.746Z,19.39
2019-01-16T06:52:37.067Z,19.4
2019-01-16T06:53:37.220Z,19.41
2019-01-16T06:54:36.996Z,19.43
2019-01-16T06:55:37.443Z,19.43
2019-01-16T06:56:37.328Z,19.48
2019-01-16T06:57:36.763Z,19.47
2019-01-16T06:58:37.420Z,19.47
2019-01-16T06:59:37.271Z,19.49
2019-01-16T07:00:37.293Z,19.5
2019-01-16T07:01:37.020Z,19.53
2019-01-16T07:02:37.225Z,19.52
2019-01-16T07:03:37.173Z,19.51
2019-01-16T07:04:37.061Z,19.51
2019-01-16T07:05:36.881Z,19.52
2019-01-16T07:06:37.043Z,19.5
2019-01-16T07:07:37.943Z,19.52
2019-01-16T07:08:36.991Z,19.53
2019-01-16T07:09:38.080Z,19.52
2019-01-16T07:10:36.706Z,19.51
2019-01-16T07:11:37.111Z,19.51
2019-01-16T07:12:37.773Z,19.51
2019-01-16T07:13:37.356Z,19.51
2019-01-16T07:14:36.912Z,19.51
2019-01-16T07:15:37.141Z,19.51
2019-01-16T07:16:36.975Z,19.49
2019-01-16T07:17:37.751Z,19.49
2019-01-16T07:18:36.994Z,19.51
2019-01-16T07:19:36.980Z,19.53
2019-01-16T07:20:37.263Z,19.53
2019-01-16T07:21:36.884Z,19.51
2019-01-16T07:22:37.110Z,19.55
2019-01-16T07:23:37.220Z,19.54
2019-01-16T07:24:37.218Z,19.55
2019-01-16T07:25:36.937Z,19.55
2019-01-16T07:26:37.276Z,19.57
2019-01-16T07:27:36.892Z,19.58
2019-01-16T07:28:37.036Z,19.59
2019-01-16T07:29:37.092Z,19.59
2019-01-16T07:30:36.785Z,19.62
2019-01-16T07:31:36.985Z,19.62
2019-01-16T07:32:36.895Z,19.61
2019-01-16T07:33:37.139Z,19.62
2019-01-16T07:34:37.018Z,19.64
2019-01-16T07:35:37.270Z,19.64
2019-01-16T07:36:37.217Z,19.64
2019-01-16T07:37:37.366Z,19.63
2019-01-16T07:38:38.312Z,19.65
2019-01-16T07:39:37.456Z,19.66
2019-01-16T07:40:37.280Z,19.66
2019-01-16T07:41:37.097Z,19.65
2019-01-16T07:42:37.115Z,19.65
2019-01-16T07:43:36.939Z,19.63
2019-01-16T07:44:36.937Z,19.65
2019-01-16T07:45:36.885Z,19.64
2019-01-16T07:46:38.071Z,19.64
2019-01-16T07:47:37.060Z,19.63
2019-01-16T07:48:37.289Z,19.64
2019-01-16T07:49:37.363Z,19.65
2019-01-16T07:50:36.911Z,19.65
2019-01-16T07:51:37.389Z,19.64
2019-01-16T07:52:37.119Z,19.62
2019-01-16T07:53:37.100Z,19.63
2019-01-16T07:54:37.362Z,19.63
2019-01-16T07:55:37.359Z,19.61
2019-01-16T07:56:36.835Z,19.62
2019-01-16T07:57:37.149Z,19.62
2019-01-16T07:58:37.075Z,19.61
2019-01-16T07:59:37.297Z,19.62
2019-01-16T08:00:37.649Z,19.63
2019-01-16T08:01:36.789Z,19.62
2019-01-16T08:02:37.324Z,19.61
2019-01-16T08:03:37.182Z,19.61
2019-01-16T08:04:37.090Z,19.62
2019-01-16T08:05:36.872Z,19.61
2019-01-16T08:06:37.020Z,19.62
2019-01-16T08:07:37.127Z,19.61
2019-01-16T08:08:36.941Z,19.61
2019-01-16T08:09:37.095Z,19.61
2019-01-16T08:10:37.067Z,19.6
2019-01-16T08:11:37.001Z,19.59
2019-01-16T08:12:36.752Z,19.59
2019-01-16T08:13:36.914Z,19.58
2019-01-16T08:14:36.980Z,19.57
2019-01-16T08:15:36.897Z,19.56
2019-01-16T08:16:37.344Z,19.56
2019-01-16T08:17:37.052Z,19.56
2019-01-16T08:18:36.785Z,19.56
2019-01-16T08:19:36.983Z,19.54
2019-01-16T08:20:37.118Z,19.56
2019-01-16T08:21:37.342Z,19.55
2019-01-16T08:22:37.205Z,19.55
2019-01-16T08:23:37.220Z,19.55
2019-01-16T08:24:36.948Z,19.55
2019-01-16T08:25:37.337Z,19.55
2019-01-16T08:26:36.854Z,19.55
2019-01-16T08:27:38.305Z,19.56
2019-01-16T08:28:37.217Z,19.56
2019-01-16T08:29:36.808Z,19.55
2019-01-16T08:30:37.328Z,19.54
2019-01-16T08:31:37.032Z,19.55
2019-01-16T08:32:37.206Z,19.55
2019-01-16T08:33:36.979Z,19.55
2019-01-16T08:34:37.603Z,19.55
2019-01-16T08:35:37.170Z,19.56
2019-01-16T08:36:36.877Z,19.56
2019-01-16T08:37:36.822Z,19.55
2019-01-16T08:38:37.229Z,19.56
2019-01-16T08:39:37.666Z,19.56
2019-01-16T08:40:36.873Z,19.56
2019-01-16T08:41:37.186Z,19.56
2019-01-16T08:42:37.090Z,19.56
2019-01-16T08:43:37.122Z,19.57
2019-01-16T08:44:38.174Z,19.57
2019-01-16T08:45:37.060Z,19.58
2019-01-16T08:46:37.315Z,19.58
2019-01-16T08:47:37.116Z,19.59
2019-01-16T08:48:37.038Z,19.58
2019-01-16T08:49:37.168Z,19.57
2019-01-16T08:50:37.029Z,19.58
2019-01-16T08:51:36.814Z,19.59
2019-01-16T08:52:37.307Z,19.59
2019-01-16T08:53:37.374Z,19.6
2019-01-16T08:54:37.123Z,19.6
2019-01-16T08:55:36.999Z,19.59
2019-01-16T08:56:37.060Z,19.59
2019-01-16T08:57:37.171Z,19.6
2019-01-16T08:58:37.196Z,19.62
2019-01-16T08:59:37.023Z,19.62
2019-01-16T09:00:36.933Z,19.61
2019-01-16T09:01:36.870Z,19.61
2019-01-16T09:02:37.223Z,19.62
2019-01-16T09:03:37.055Z,19.62
2019-01-16T09:04:36.966Z,19.63
2019-01-16T09:05:37.381Z,19.63
2019-01-16T09:06:37.093Z,19.64
2019-01-16T09:07:37.668Z,19.63
2019-01-16T09:08:36.729Z,19.64
2019-01-16T09:09:37.518Z,19.65
2019-01-16T09:10:36.874Z,19.64
2019-01-16T09:11:36.921Z,19.66
2019-01-16T09:12:36.897Z,19.66
2019-01-16T09:13:37.122Z,19.65
2019-01-16T09:14:37.370Z,19.65
2019-01-16T09:15:37.621Z,19.66
2019-01-16T09:16:36.905Z,19.66
2019-01-16T09:17:36.775Z,19.67
2019-01-16T09:18:37.425Z,19.66
2019-01-16T09:19:37.509Z,19.65
2019-01-16T09:20:40.038Z,19.66
2019-01-16T09:21:37.021Z,19.66
2019-01-16T09:22:37.265Z,19.67
2019-01-16T09:23:36.852Z,19.67
2019-01-16T09:24:37.281Z,19.67
2019-01-16T09:25:37.842Z,19.66
2019-01-16T09:26:36.853Z,19.67
2019-01-16T09:27:38.705Z,19.65
2019-01-16T09:28:37.787Z,19.66
2019-01-16T09:29:37.142Z,19.67
2019-01-16T09:30:36.741Z,19.67
2019-01-16T09:31:37.090Z,19.66
2019-01-16T09:32:37.123Z,19.67
2019-01-16T09:33:37.143Z,19.66
2019-01-16T09:34:37.333Z,19.66
2019-01-16T09:35:36.977Z,19.66
2019-01-16T09:36:37.055Z,19.67
2019-01-16T09:37:36.826Z,19.68
2019-01-16T09:38:37.518Z,19.7
2019-01-16T09:39:36.749Z,19.68
2019-01-16T09:40:37.261Z,19.69
2019-01-16T09:41:37.194Z,19.69
2019-01-16T09:42:37.001Z,19.69
2019-01-16T09:43:37.272Z,19.68
2019-01-16T09:44:36.942Z,19.69
2019-01-16T09:45:37.249Z,19.7
2019-01-16T09:46:36.997Z,19.69
2019-01-16T09:47:37.058Z,19.7
2019-01-16T09:48:36.872Z,19.7
2019-01-16T09:49:36.894Z,19.7
2019-01-16T09:50:36.834Z,19.7
2019-01-16T09:51:36.784Z,19.7
2019-01-16T09:52:37.365Z,19.7
2019-01-16T09:53:37.199Z,19.71
2019-01-16T09:54:36.976Z,19.71
2019-01-16T09:55:37.040Z,19.71
2019-01-16T09:56:36.853Z,19.72
2019-01-16T09:57:36.924Z,19.72
2019-01-16T09:58:36.920Z,19.71
2019-01-16T09:59:36.964Z,19.72
2019-01-16T10:00:36.918Z,19.73
2019-01-16T10:01:36.954Z,19.73
2019-01-16T10:02:37.036Z,19.73
2019-01-16T10:03:37.058Z,19.73
2019-01-16T10:04:36.936Z,19.73
2019-01-16T10:05:36.826Z,19.73
2019-01-16T10:06:37.916Z,19.75
2019-01-16T10:07:36.841Z,19.73
2019-01-16T10:08:37.465Z,19.75
2019-01-16T10:09:36.923Z,19.74
2019-01-16T10:10:37.075Z,19.73
2019-01-16T10:11:37.340Z,19.74
2019-01-16T10:12:36.939Z,19.75
2019-01-16T10:13:36.756Z,19.75
2019-01-16T10:14:37.390Z,19.76
2019-01-16T10:15:39.635Z,19.77
2019-01-16T10:16:37.261Z,19.76
2019-01-16T10:17:37.898Z,19.76
2019-01-16T10:18:37.172Z,19.76
2019-01-16T10:19:36.985Z,19.76
2019-01-16T10:20:37.678Z,19.77
2019-01-16T10:21:37.818Z,19.76
2019-01-16T10:22:37.055Z,19.76
2019-01-16T10:23:37.173Z,19.76
2019-01-16T10:24:37.075Z,19.76
2019-01-16T10:25:36.872Z,19.75
2019-01-16T10:26:37.060Z,19.75
2019-01-16T10:27:37.169Z,19.77
2019-01-16T10:28:38.805Z,19.74
2019-01-16T10:29:36.830Z,19.7
2019-01-16T10:30:36.938Z,19.59
2019-01-16T10:31:37.713Z,19.5
2019-01-16T10:32:37.210Z,19.39
2019-01-16T10:33:37.238Z,19.27
2019-01-16T10:34:37.009Z,19.23
2019-01-16T10:35:36.802Z,19.17
2019-01-16T10:36:36.788Z,19.13
2019-01-16T10:37:37.032Z,19.03
2019-01-16T10:38:36.736Z,18.97
2019-01-16T10:39:36.894Z,18.93
2019-01-16T10:40:36.777Z,18.85
2019-01-16T10:41:37.663Z,18.84
2019-01-16T10:42:37.095Z,18.9
2019-01-16T10:43:36.884Z,18.91
2019-01-16T10:44:37.255Z,18.96
2019-01-16T10:45:37.331Z,18.99
2019-01-16T10:46:36.950Z,19.02
2019-01-16T10:47:36.826Z,19.05
2019-01-16T10:48:36.881Z,19.07
2019-01-16T10:49:37.210Z,19.09
2019-01-16T10:50:36.873Z,19.13
2019-01-16T10:51:36.987Z,19.14
2019-01-16T10:52:36.793Z,19.15
2019-01-16T10:53:37.032Z,19.18
2019-01-16T10:54:37.076Z,19.19
2019-01-16T10:55:36.721Z,19.2
2019-01-16T10:56:38.714Z,19.21
2019-01-16T10:57:36.629Z,19.22
2019-01-16T10:58:37.050Z,19.22
2019-01-16T10:59:37.174Z,19.23
2019-01-16T11:00:36.650Z,19.24
2019-01-16T11:01:36.990Z,19.24
2019-01-16T11:02:36.827Z,19.23
2019-01-16T11:03:37.082Z,19.24
2019-01-16T11:04:36.779Z,19.23
2019-01-16T11:05:36.942Z,19.23
2019-01-16T11:06:36.896Z,19.25
2019-01-16T11:07:37.371Z,19.24
2019-01-16T11:08:36.849Z,19.24
2019-01-16T11:09:36.690Z,19.24
2019-01-16T11:10:37.050Z,19.24
2019-01-16T11:11:36.859Z,19.24
2019-01-16T11:12:36.955Z,19.24
2019-01-16T11:13:37.292Z,19.24
2019-01-16T11:14:36.850Z,19.25
2019-01-16T11:15:36.816Z,19.24
2019-01-16T11:16:38.601Z,19.24
2019-01-16T11:17:36.754Z,19.26
2019-01-16T11:18:36.870Z,19.26
2019-01-16T11:19:37.300Z,19.25
2019-01-16T11:20:36.999Z,19.25
2019-01-16T11:21:37.070Z,19.25
2019-01-16T11:22:36.822Z,19.25
2019-01-16T11:23:37.005Z,19.24
2019-01-16T11:24:37.101Z,19.24
2019-01-16T11:25:37.283Z,19.25
2019-01-16T11:26:36.670Z,19.24
2019-01-16T11:27:37.005Z,19.24
2019-01-16T11:28:36.858Z,19.24
2019-01-16T11:29:36.728Z,19.25
2019-01-16T11:30:36.975Z,19.24
2019-01-16T11:31:36.863Z,19.24
2019-01-16T11:32:36.774Z,19.24
2019-01-16T11:33:36.777Z,19.24
2019-01-16T11:34:37.098Z,19.24
2019-01-16T11:35:37.115Z,19.24
2019-01-16T11:36:36.755Z,19.23
2019-01-16T11:37:36.913Z,19.23
2019-01-16T11:38:36.804Z,19.25
2019-01-16T11:39:37.046Z,19.23
2019-01-16T11:40:36.741Z,19.23
2019-01-16T11:41:36.958Z,19.23
2019-01-16T11:42:36.906Z,19.23
2019-01-16T11:43:36.971Z,19.24
2019-01-16T11:44:36.845Z,19.24
2019-01-16T11:45:37.012Z,19.24
2019-01-16T11:46:36.757Z,19.24
2019-01-16T11:47:36.976Z,19.23
2019-01-16T11:48:39.479Z,19.23
2019-01-16T11:49:36.767Z,19.23
2019-01-16T11:50:37.039Z,19.23
2019-01-16T11:51:37.030Z,19.23
2019-01-16T11:52:36.730Z,19.24
2019-01-16T11:53:37.977Z,19.24
2019-01-16T11:54:37.236Z,19.23
2019-01-16T11:55:37.349Z,19.23
2019-01-16T11:56:36.877Z,19.24
2019-01-16T11:57:36.757Z,19.23
2019-01-16T11:58:37.786Z,19.24
2019-01-16T11:59:38.786Z,19.23
2019-01-16T12:00:37.488Z,19.24
2019-01-16T12:01:37.114Z,19.24
2019-01-16T12:02:38.558Z,19.23
2019-01-16T12:03:38.630Z,19.24
2019-01-16T12:04:36.743Z,19.25
2019-01-16T12:05:36.857Z,19.24
2019-01-16T12:06:37.138Z,19.25
2019-01-16T12:07:36.930Z,19.23
2019-01-16T12:08:37.033Z,19.23
2019-01-16T12:09:37.062Z,19.25
2019-01-16T12:10:37.008Z,19.25
2019-01-16T12:11:38.539Z,19.23
2019-01-16T12:12:36.771Z,19.24
2019-01-16T12:13:36.959Z,19.23
2019-01-16T12:14:37.085Z,19.24
2019-01-16T12:15:36.847Z,19.24
2019-01-16T12:16:37.616Z,19.23
2019-01-16T12:17:36.792Z,19.24
2019-01-16T12:18:37.112Z,19.22
2019-01-16T12:19:36.670Z,19.22
2019-01-16T12:20:37.017Z,19.23
2019-01-16T12:21:36.937Z,19.23
2019-01-16T12:22:36.726Z,19.24
2019-01-16T12:23:37.276Z,19.23
2019-01-16T12:24:37.115Z,19.24
2019-01-16T12:25:36.848Z,19.24
2019-01-16T12:26:36.806Z,19.23
2019-01-16T12:27:37.284Z,19.24
2019-01-16T12:28:36.738Z,19.24
2019-01-16T12:29:36.844Z,19.25
2019-01-16T12:30:37.016Z,19.24
2019-01-16T12:31:36.750Z,19.24
2019-01-16T12:32:36.761Z,19.24
2019-01-16T12:33:37.125Z,19.24
2019-01-16T12:34:36.699Z,19.24
2019-01-16T12:35:37.047Z,19.23
2019-01-16T12:36:36.709Z,19.23
2019-01-16T12:37:37.344Z,19.23
2019-01-16T12:38:36.786Z,19.23
2019-01-16T12:39:37.176Z,19.23
2019-01-16T12:40:36.854Z,19.22
2019-01-16T12:41:36.878Z,19.24
2019-01-16T12:42:37.087Z,19.24
2019-01-16T12:43:37.099Z,19.24
2019-01-16T12:44:37.060Z,19.23
2019-01-16T12:45:36.666Z,19.23
2019-01-16T12:46:37.340Z,19.24
2019-01-16T12:47:36.718Z,19.23
2019-01-16T12:48:36.797Z,19.23
2019-01-16T12:49:36.838Z,19.24
2019-01-16T12:50:36.733Z,19.23
2019-01-16T12:51:37.079Z,19.23
2019-01-16T12:52:37.257Z,19.24
2019-01-16T12:53:37.236Z,19.24
2019-01-16T12:54:36.917Z,19.23